Terminal Aerodrome Forecast
Issued by NWS Tulsa, OK

Home | Current Version | Previous Version | Text Only | Print | Product List | Glossary On
Versions: 1 2 3 4 5 6 7 8 9 10 11 12
000
FTUS44 KTSA 040500
TAFFSM
TAF
KFSM 040520Z 0406/0506 VRB04KT P6SM SCT250
     FM041400 22012KT P6SM BKN250
     FM050000 14007KT P6SM BKN250=

USA.gov is the U.S. government's official web portal to all federal, state and local government web resources and services.